Stevensville, Pennsylvania
Current Conditions -  °F | °C
As of 7:53 PM on Saturday 25 Oct 2014 (Local Time) from KBGM Reporting Station
Broken Clouds Broken Clouds  
Wind Chill: 55°   Ceiling: 3700
Heat Index: 55°   Visibility: 10mi
Dew Point: 49°   Wind: 8mph
Humidity: 80%   Direction: 290°WNW
Pressure: 29.6"   Gusts: 17mph
Location:  41.76°N, 76.18°W
Report Text: KBGM 252353Z 29007G15KT 10SM BKN037 13/09 A2960 RMK AO2 RAE51 SLP027 P0010 60010 T01280094 10167 20128 55004
Loading
Personal Weather Stations






























Interactive Weather Map
Tropical Storm Tracking
New forecast layout! Learn more

10-Day Weather Forecast

Advertisements
Track Severe Weather on mobile